sensor_id;sensor_type;location;lat;lon;timestamp;P1;durP1;ratioP1;P2;durP2;ratioP2
12519;SDS011;6325;49.540;8.364;2022-09-09T00:00:27;0.93;;;0.80;;
12519;SDS011;6325;49.540;8.364;2022-09-09T00:03:01;0.70;;;0.70;;
12519;SDS011;6325;49.540;8.364;2022-09-09T00:05:38;0.82;;;0.82;;
12519;SDS011;6325;49.540;8.364;2022-09-09T00:08:13;1.00;;;0.90;;
12519;SDS011;6325;49.540;8.364;2022-09-09T00:10:46;1.77;;;0.98;;
12519;SDS011;6325;49.540;8.364;2022-09-09T00:13:22;1.48;;;0.80;;
12519;SDS011;6325;49.540;8.364;2022-09-09T00:15:55;1.30;;;1.10;;
12519;SDS011;6325;49.540;8.364;2022-09-09T00:18:27;0.98;;;0.93;;
12519;SDS011;6325;49.540;8.364;2022-09-09T00:21:01;0.90;;;0.90;;
12519;SDS011;6325;49.540;8.364;2022-09-09T00:23:34;1.73;;;1.20;;
12519;SDS011;6325;49.540;8.364;2022-09-09T00:26:05;1.88;;;1.13;;
12519;SDS011;6325;49.540;8.364;2022-09-09T00:28:39;1.10;;;1.00;;
12519;SDS011;6325;49.540;8.364;2022-09-09T00:31:12;0.90;;;0.80;;
12519;SDS011;6325;49.540;8.364;2022-09-09T00:33:43;1.30;;;0.90;;
12519;SDS011;6325;49.540;8.364;2022-09-09T00:36:14;0.85;;;0.80;;
12519;SDS011;6325;49.540;8.364;2022-09-09T00:38:45;1.40;;;0.90;;
12519;SDS011;6325;49.540;8.364;2022-09-09T00:41:18;1.77;;;0.90;;
12519;SDS011;6325;49.540;8.364;2022-09-09T00:43:52;1.25;;;0.80;;
12519;SDS011;6325;49.540;8.364;2022-09-09T00:49:19;1.60;;;0.90;;
12519;SDS011;6325;49.540;8.364;2022-09-09T00:51:59;1.33;;;0.85;;
12519;SDS011;6325;49.540;8.364;2022-09-09T00:54:37;0.80;;;0.80;;
12519;SDS011;6325;49.540;8.364;2022-09-09T00:57:16;2.03;;;0.95;;
12519;SDS011;6325;49.540;8.364;2022-09-09T00:59:55;0.82;;;0.80;;
12519;SDS011;6325;49.540;8.364;2022-09-09T01:02:29;0.70;;;0.70;;
12519;SDS011;6325;49.540;8.364;2022-09-09T01:05:01;1.85;;;1.00;;
12519;SDS011;6325;49.540;8.364;2022-09-09T01:07:34;0.90;;;0.80;;
12519;SDS011;6325;49.540;8.364;2022-09-09T01:10:03;1.73;;;1.20;;
12519;SDS011;6325;49.540;8.364;2022-09-09T01:12:38;0.80;;;0.80;;
12519;SDS011;6325;49.540;8.364;2022-09-09T01:15:09;1.73;;;1.08;;
12519;SDS011;6325;49.540;8.364;2022-09-09T01:17:49;1.10;;;0.90;;
12519;SDS011;6325;49.540;8.364;2022-09-09T01:20:23;1.38;;;1.00;;
12519;SDS011;6325;49.540;8.364;2022-09-09T01:23:03;1.38;;;1.00;;
12519;SDS011;6325;49.540;8.364;2022-09-09T01:28:38;0.90;;;0.90;;
12519;SDS011;6325;49.540;8.364;2022-09-09T01:31:06;1.65;;;0.98;;
12519;SDS011;6325;49.540;8.364;2022-09-09T01:33:37;1.43;;;1.00;;
12519;SDS011;6325;49.540;8.364;2022-09-09T01:36:05;0.80;;;0.70;;
12519;SDS011;6325;49.540;8.364;2022-09-09T01:38:36;0.90;;;0.90;;
12519;SDS011;6325;49.540;8.364;2022-09-09T01:41:03;1.02;;;0.73;;
12519;SDS011;6325;49.540;8.364;2022-09-09T01:43:32;0.87;;;0.70;;
12519;SDS011;6325;49.540;8.364;2022-09-09T01:45:59;0.77;;;0.77;;
12519;SDS011;6325;49.540;8.364;2022-09-09T01:48:27;1.08;;;0.70;;
12519;SDS011;6325;49.540;8.364;2022-09-09T01:50:55;1.13;;;1.00;;
12519;SDS011;6325;49.540;8.364;2022-09-09T01:53:22;0.85;;;0.80;;
12519;SDS011;6325;49.540;8.364;2022-09-09T01:55:53;0.90;;;0.70;;
12519;SDS011;6325;49.540;8.364;2022-09-09T01:58:34;0.70;;;0.70;;
12519;SDS011;6325;49.540;8.364;2022-09-09T02:01:12;1.40;;;0.90;;
12519;SDS011;6325;49.540;8.364;2022-09-09T02:03:49;0.95;;;0.70;;
12519;SDS011;6325;49.540;8.364;2022-09-09T02:06:22;1.65;;;0.70;;
12519;SDS011;6325;49.540;8.364;2022-09-09T02:08:55;1.80;;;0.60;;
12519;SDS011;6325;49.540;8.364;2022-09-09T02:11:25;1.30;;;0.90;;
12519;SDS011;6325;49.540;8.364;2022-09-09T02:13:56;1.97;;;0.90;;
12519;SDS011;6325;49.540;8.364;2022-09-09T02:16:27;1.98;;;0.80;;
12519;SDS011;6325;49.540;8.364;2022-09-09T02:19:00;0.70;;;0.70;;
12519;SDS011;6325;49.540;8.364;2022-09-09T02:21:30;1.15;;;0.60;;
12519;SDS011;6325;49.540;8.364;2022-09-09T02:24:00;0.63;;;0.60;;
12519;SDS011;6325;49.540;8.364;2022-09-09T02:26:33;0.77;;;0.60;;
12519;SDS011;6325;49.540;8.364;2022-09-09T02:29:03;0.75;;;0.60;;
12519;SDS011;6325;49.540;8.364;2022-09-09T02:31:34;0.60;;;0.60;;
12519;SDS011;6325;49.540;8.364;2022-09-09T02:34:03;0.80;;;0.80;;
12519;SDS011;6325;49.540;8.364;2022-09-09T02:36:32;0.60;;;0.60;;
12519;SDS011;6325;49.540;8.364;2022-09-09T02:39:01;0.68;;;0.68;;
12519;SDS011;6325;49.540;8.364;2022-09-09T02:41:32;0.50;;;0.50;;
12519;SDS011;6325;49.540;8.364;2022-09-09T02:44:00;0.70;;;0.70;;
12519;SDS011;6325;49.540;8.364;2022-09-09T02:46:43;0.70;;;0.70;;
12519;SDS011;6325;49.540;8.364;2022-09-09T02:49:23;0.73;;;0.73;;
12519;SDS011;6325;49.540;8.364;2022-09-09T02:51:59;1.70;;;0.80;;
12519;SDS011;6325;49.540;8.364;2022-09-09T02:54:31;1.08;;;0.70;;
12519;SDS011;6325;49.540;8.364;2022-09-09T02:57:01;1.10;;;0.77;;
12519;SDS011;6325;49.540;8.364;2022-09-09T02:59:34;0.60;;;0.60;;
12519;SDS011;6325;49.540;8.364;2022-09-09T03:02:01;1.90;;;0.95;;
12519;SDS011;6325;49.540;8.364;2022-09-09T03:04:28;0.70;;;0.70;;
12519;SDS011;6325;49.540;8.364;2022-09-09T03:06:55;0.70;;;0.68;;
12519;SDS011;6325;49.540;8.364;2022-09-09T03:09:22;1.90;;;0.80;;
12519;SDS011;6325;49.540;8.364;2022-09-09T03:11:48;1.10;;;0.70;;
12519;SDS011;6325;49.540;8.364;2022-09-09T03:14:15;1.00;;;0.63;;
12519;SDS011;6325;49.540;8.364;2022-09-09T03:16:47;1.00;;;0.80;;
12519;SDS011;6325;49.540;8.364;2022-09-09T03:19:15;0.73;;;0.70;;
12519;SDS011;6325;49.540;8.364;2022-09-09T03:21:43;2.08;;;1.00;;
12519;SDS011;6325;49.540;8.364;2022-09-09T03:24:10;2.45;;;1.02;;
12519;SDS011;6325;49.540;8.364;2022-09-09T03:26:37;1.70;;;0.90;;
12519;SDS011;6325;49.540;8.364;2022-09-09T03:29:05;0.85;;;0.70;;
12519;SDS011;6325;49.540;8.364;2022-09-09T03:31:32;0.70;;;0.70;;
12519;SDS011;6325;49.540;8.364;2022-09-09T03:34:00;0.88;;;0.80;;
12519;SDS011;6325;49.540;8.364;2022-09-09T03:36:27;0.85;;;0.85;;
12519;SDS011;6325;49.540;8.364;2022-09-09T03:38:54;0.70;;;0.70;;
12519;SDS011;6325;49.540;8.364;2022-09-09T03:41:21;0.77;;;0.60;;
12519;SDS011;6325;49.540;8.364;2022-09-09T03:43:49;1.25;;;0.93;;
12519;SDS011;6325;49.540;8.364;2022-09-09T03:46:16;1.30;;;0.80;;
12519;SDS011;6325;49.540;8.364;2022-09-09T03:48:43;1.90;;;1.08;;
12519;SDS011;6325;49.540;8.364;2022-09-09T03:51:11;0.80;;;0.80;;
12519;SDS011;6325;49.540;8.364;2022-09-09T03:53:39;0.83;;;0.83;;
12519;SDS011;6325;49.540;8.364;2022-09-09T03:56:06;1.35;;;0.90;;
12519;SDS011;6325;49.540;8.364;2022-09-09T03:58:34;1.23;;;0.90;;
12519;SDS011;6325;49.540;8.364;2022-09-09T04:01:03;0.95;;;0.90;;
12519;SDS011;6325;49.540;8.364;2022-09-09T04:03:31;1.23;;;0.80;;
12519;SDS011;6325;49.540;8.364;2022-09-09T04:05:59;1.40;;;0.90;;
12519;SDS011;6325;49.540;8.364;2022-09-09T04:08:29;1.93;;;1.00;;
12519;SDS011;6325;49.540;8.364;2022-09-09T04:10:57;2.40;;;0.97;;
12519;SDS011;6325;49.540;8.364;2022-09-09T04:13:26;1.95;;;1.00;;
12519;SDS011;6325;49.540;8.364;2022-09-09T04:15:55;1.20;;;0.85;;
12519;SDS011;6325;49.540;8.364;2022-09-09T04:18:22;1.58;;;1.00;;
12519;SDS011;6325;49.540;8.364;2022-09-09T04:20:51;0.65;;;0.65;;
12519;SDS011;6325;49.540;8.364;2022-09-09T04:23:19;2.00;;;0.90;;
12519;SDS011;6325;49.540;8.364;2022-09-09T04:25:48;1.05;;;0.85;;
12519;SDS011;6325;49.540;8.364;2022-09-09T04:28:16;1.08;;;0.80;;
12519;SDS011;6325;49.540;8.364;2022-09-09T04:30:46;0.98;;;0.88;;
12519;SDS011;6325;49.540;8.364;2022-09-09T04:33:13;1.58;;;1.00;;
12519;SDS011;6325;49.540;8.364;2022-09-09T04:35:43;2.05;;;0.90;;
12519;SDS011;6325;49.540;8.364;2022-09-09T04:38:11;0.63;;;0.63;;
12519;SDS011;6325;49.540;8.364;2022-09-09T04:40:37;1.10;;;0.68;;
12519;SDS011;6325;49.540;8.364;2022-09-09T04:43:09;0.82;;;0.70;;
12519;SDS011;6325;49.540;8.364;2022-09-09T04:45:36;1.50;;;0.80;;
12519;SDS011;6325;49.540;8.364;2022-09-09T04:48:05;2.58;;;0.88;;
12519;SDS011;6325;49.540;8.364;2022-09-09T04:50:32;1.38;;;0.80;;
12519;SDS011;6325;49.540;8.364;2022-09-09T04:53:00;1.23;;;0.60;;
12519;SDS011;6325;49.540;8.364;2022-09-09T04:55:27;1.55;;;0.88;;
12519;SDS011;6325;49.540;8.364;2022-09-09T04:57:55;1.40;;;0.80;;
12519;SDS011;6325;49.540;8.364;2022-09-09T05:00:23;0.80;;;0.70;;
12519;SDS011;6325;49.540;8.364;2022-09-09T05:02:51;1.15;;;0.65;;
12519;SDS011;6325;49.540;8.364;2022-09-09T05:05:17;2.08;;;0.75;;
12519;SDS011;6325;49.540;8.364;2022-09-09T05:07:44;1.33;;;0.77;;
12519;SDS011;6325;49.540;8.364;2022-09-09T05:10:12;1.23;;;0.90;;
12519;SDS011;6325;49.540;8.364;2022-09-09T05:12:40;1.02;;;0.90;;
12519;SDS011;6325;49.540;8.364;2022-09-09T05:15:07;1.20;;;0.97;;
12519;SDS011;6325;49.540;8.364;2022-09-09T05:17:38;1.17;;;0.80;;
12519;SDS011;6325;49.540;8.364;2022-09-09T05:20:05;1.20;;;0.70;;
12519;SDS011;6325;49.540;8.364;2022-09-09T05:22:32;0.60;;;0.60;;
12519;SDS011;6325;49.540;8.364;2022-09-09T05:24:59;0.85;;;0.65;;
12519;SDS011;6325;49.540;8.364;2022-09-09T05:27:26;1.40;;;0.80;;
12519;SDS011;6325;49.540;8.364;2022-09-09T05:29:53;0.70;;;0.70;;
12519;SDS011;6325;49.540;8.364;2022-09-09T05:32:21;1.27;;;0.75;;
12519;SDS011;6325;49.540;8.364;2022-09-09T05:34:50;2.20;;;0.80;;
12519;SDS011;6325;49.540;8.364;2022-09-09T05:37:17;0.90;;;0.80;;
12519;SDS011;6325;49.540;8.364;2022-09-09T05:39:44;1.25;;;0.70;;
12519;SDS011;6325;49.540;8.364;2022-09-09T05:42:11;0.88;;;0.77;;
12519;SDS011;6325;49.540;8.364;2022-09-09T05:44:38;1.17;;;0.80;;
12519;SDS011;6325;49.540;8.364;2022-09-09T05:47:07;1.02;;;0.73;;
12519;SDS011;6325;49.540;8.364;2022-09-09T05:49:34;0.77;;;0.73;;
12519;SDS011;6325;49.540;8.364;2022-09-09T05:52:03;1.08;;;0.70;;
12519;SDS011;6325;49.540;8.364;2022-09-09T05:54:30;0.88;;;0.63;;
12519;SDS011;6325;49.540;8.364;2022-09-09T05:56:57;0.95;;;0.60;;
12519;SDS011;6325;49.540;8.364;2022-09-09T05:59:24;0.82;;;0.73;;
12519;SDS011;6325;49.540;8.364;2022-09-09T06:01:52;0.60;;;0.60;;
12519;SDS011;6325;49.540;8.364;2022-09-09T06:04:22;0.90;;;0.63;;
12519;SDS011;6325;49.540;8.364;2022-09-09T06:06:49;0.63;;;0.60;;
12519;SDS011;6325;49.540;8.364;2022-09-09T06:09:18;2.90;;;0.90;;
12519;SDS011;6325;49.540;8.364;2022-09-09T06:11:45;1.17;;;0.80;;
12519;SDS011;6325;49.540;8.364;2022-09-09T06:14:12;0.70;;;0.70;;
12519;SDS011;6325;49.540;8.364;2022-09-09T06:16:39;1.50;;;0.80;;
12519;SDS011;6325;49.540;8.364;2022-09-09T06:19:09;0.70;;;0.70;;
12519;SDS011;6325;49.540;8.364;2022-09-09T06:21:37;1.20;;;0.70;;
12519;SDS011;6325;49.540;8.364;2022-09-09T06:24:05;1.15;;;0.80;;
12519;SDS011;6325;49.540;8.364;2022-09-09T06:26:35;1.98;;;0.90;;
12519;SDS011;6325;49.540;8.364;2022-09-09T06:29:06;1.20;;;0.77;;
12519;SDS011;6325;49.540;8.364;2022-09-09T06:31:34;2.92;;;0.90;;
12519;SDS011;6325;49.540;8.364;2022-09-09T06:34:03;1.02;;;0.90;;
12519;SDS011;6325;49.540;8.364;2022-09-09T06:36:32;1.33;;;0.82;;
12519;SDS011;6325;49.540;8.364;2022-09-09T06:39:02;1.45;;;0.80;;
12519;SDS011;6325;49.540;8.364;2022-09-09T06:41:29;1.63;;;0.80;;
12519;SDS011;6325;49.540;8.364;2022-09-09T06:43:59;1.23;;;0.80;;
12519;SDS011;6325;49.540;8.364;2022-09-09T06:46:27;1.23;;;0.70;;
12519;SDS011;6325;49.540;8.364;2022-09-09T06:48:56;0.70;;;0.70;;
12519;SDS011;6325;49.540;8.364;2022-09-09T06:51:26;1.60;;;0.85;;
12519;SDS011;6325;49.540;8.364;2022-09-09T06:53:54;1.60;;;1.00;;
12519;SDS011;6325;49.540;8.364;2022-09-09T06:56:23;1.30;;;0.90;;
12519;SDS011;6325;49.540;8.364;2022-09-09T06:58:54;2.20;;;0.82;;
12519;SDS011;6325;49.540;8.364;2022-09-09T07:01:25;1.63;;;0.90;;
12519;SDS011;6325;49.540;8.364;2022-09-09T07:03:57;1.90;;;1.00;;
12519;SDS011;6325;49.540;8.364;2022-09-09T07:06:26;1.48;;;0.85;;
12519;SDS011;6325;49.540;8.364;2022-09-09T07:08:54;1.77;;;0.82;;
12519;SDS011;6325;49.540;8.364;2022-09-09T07:11:23;1.90;;;0.88;;
12519;SDS011;6325;49.540;8.364;2022-09-09T07:13:51;1.88;;;0.75;;
12519;SDS011;6325;49.540;8.364;2022-09-09T07:16:19;2.22;;;0.90;;
12519;SDS011;6325;49.540;8.364;2022-09-09T07:18:50;2.10;;;0.93;;
12519;SDS011;6325;49.540;8.364;2022-09-09T07:21:17;1.30;;;0.80;;
12519;SDS011;6325;49.540;8.364;2022-09-09T07:23:45;1.77;;;0.90;;
12519;SDS011;6325;49.540;8.364;2022-09-09T07:26:13;1.00;;;0.87;;
12519;SDS011;6325;49.540;8.364;2022-09-09T07:28:42;1.52;;;1.08;;
12519;SDS011;6325;49.540;8.364;2022-09-09T07:31:12;2.05;;;1.10;;
12519;SDS011;6325;49.540;8.364;2022-09-09T07:33:41;1.08;;;0.85;;
12519;SDS011;6325;49.540;8.364;2022-09-09T07:36:10;2.15;;;0.80;;
12519;SDS011;6325;49.540;8.364;2022-09-09T07:38:44;1.73;;;0.90;;
12519;SDS011;6325;49.540;8.364;2022-09-09T07:41:13;2.17;;;0.90;;
12519;SDS011;6325;49.540;8.364;2022-09-09T07:43:42;2.08;;;1.13;;
12519;SDS011;6325;49.540;8.364;2022-09-09T07:46:11;2.42;;;0.98;;
12519;SDS011;6325;49.540;8.364;2022-09-09T07:48:43;1.83;;;1.00;;
12519;SDS011;6325;49.540;8.364;2022-09-09T07:51:13;1.63;;;0.90;;
12519;SDS011;6325;49.540;8.364;2022-09-09T07:53:43;1.40;;;0.93;;
12519;SDS011;6325;49.540;8.364;2022-09-09T07:56:11;1.33;;;1.00;;
12519;SDS011;6325;49.540;8.364;2022-09-09T07:58:39;1.70;;;1.10;;
12519;SDS011;6325;49.540;8.364;2022-09-09T08:01:08;1.42;;;0.85;;
12519;SDS011;6325;49.540;8.364;2022-09-09T08:03:35;1.88;;;0.93;;
12519;SDS011;6325;49.540;8.364;2022-09-09T08:06:02;2.00;;;0.83;;
12519;SDS011;6325;49.540;8.364;2022-09-09T08:08:32;1.02;;;0.80;;
12519;SDS011;6325;49.540;8.364;2022-09-09T08:11:02;1.30;;;0.93;;
12519;SDS011;6325;49.540;8.364;2022-09-09T08:13:32;0.88;;;0.80;;
12519;SDS011;6325;49.540;8.364;2022-09-09T08:16:09;2.40;;;1.30;;
12519;SDS011;6325;49.540;8.364;2022-09-09T08:18:37;1.70;;;0.93;;
12519;SDS011;6325;49.540;8.364;2022-09-09T08:21:06;1.75;;;0.90;;
12519;SDS011;6325;49.540;8.364;2022-09-09T08:23:38;1.70;;;0.90;;
12519;SDS011;6325;49.540;8.364;2022-09-09T08:26:06;2.85;;;1.00;;
12519;SDS011;6325;49.540;8.364;2022-09-09T08:28:36;0.98;;;0.90;;
12519;SDS011;6325;49.540;8.364;2022-09-09T08:31:05;1.58;;;0.80;;
12519;SDS011;6325;49.540;8.364;2022-09-09T08:33:36;1.30;;;0.97;;
12519;SDS011;6325;49.540;8.364;2022-09-09T08:36:04;1.50;;;1.00;;
12519;SDS011;6325;49.540;8.364;2022-09-09T08:38:32;1.70;;;1.00;;
12519;SDS011;6325;49.540;8.364;2022-09-09T08:41:03;2.22;;;1.10;;
12519;SDS011;6325;49.540;8.364;2022-09-09T08:43:47;1.70;;;1.02;;
12519;SDS011;6325;49.540;8.364;2022-09-09T08:46:18;2.00;;;1.08;;
12519;SDS011;6325;49.540;8.364;2022-09-09T08:48:52;2.30;;;1.00;;
12519;SDS011;6325;49.540;8.364;2022-09-09T08:51:25;1.42;;;0.80;;
12519;SDS011;6325;49.540;8.364;2022-09-09T08:53:54;2.65;;;1.10;;
12519;SDS011;6325;49.540;8.364;2022-09-09T08:56:26;1.92;;;1.05;;
12519;SDS011;6325;49.540;8.364;2022-09-09T08:58:57;2.28;;;1.00;;
12519;SDS011;6325;49.540;8.364;2022-09-09T09:01:34;2.45;;;1.15;;
12519;SDS011;6325;49.540;8.364;2022-09-09T09:04:11;1.88;;;1.08;;
12519;SDS011;6325;49.540;8.364;2022-09-09T09:06:54;1.80;;;1.10;;
12519;SDS011;6325;49.540;8.364;2022-09-09T09:09:31;1.88;;;1.00;;
12519;SDS011;6325;49.540;8.364;2022-09-09T09:12:13;1.63;;;1.07;;
12519;SDS011;6325;49.540;8.364;2022-09-09T09:14:43;2.63;;;1.13;;
12519;SDS011;6325;49.540;8.364;2022-09-09T09:17:12;0.90;;;0.80;;
12519;SDS011;6325;49.540;8.364;2022-09-09T09:19:42;2.33;;;1.20;;
12519;SDS011;6325;49.540;8.364;2022-09-09T09:22:14;4.07;;;1.13;;
12519;SDS011;6325;49.540;8.364;2022-09-09T09:24:45;2.78;;;1.10;;
12519;SDS011;6325;49.540;8.364;2022-09-09T09:27:21;1.80;;;0.98;;
12519;SDS011;6325;49.540;8.364;2022-09-09T09:29:55;3.00;;;1.23;;
12519;SDS011;6325;49.540;8.364;2022-09-09T09:32:24;2.80;;;1.20;;
12519;SDS011;6325;49.540;8.364;2022-09-09T09:34:53;1.63;;;1.10;;
12519;SDS011;6325;49.540;8.364;2022-09-09T09:37:23;2.27;;;1.10;;
12519;SDS011;6325;49.540;8.364;2022-09-09T09:39:54;1.58;;;0.95;;
12519;SDS011;6325;49.540;8.364;2022-09-09T09:42:23;2.10;;;1.20;;
12519;SDS011;6325;49.540;8.364;2022-09-09T09:44:51;1.77;;;0.93;;
12519;SDS011;6325;49.540;8.364;2022-09-09T09:47:19;1.25;;;0.85;;
12519;SDS011;6325;49.540;8.364;2022-09-09T09:49:53;3.10;;;1.27;;
12519;SDS011;6325;49.540;8.364;2022-09-09T09:52:21;2.00;;;1.08;;
12519;SDS011;6325;49.540;8.364;2022-09-09T09:54:50;1.23;;;0.95;;
12519;SDS011;6325;49.540;8.364;2022-09-09T09:57:18;1.58;;;1.00;;
12519;SDS011;6325;49.540;8.364;2022-09-09T09:59:59;2.50;;;1.30;;
12519;SDS011;6325;49.540;8.364;2022-09-09T10:02:31;2.73;;;1.10;;
12519;SDS011;6325;49.540;8.364;2022-09-09T10:05:06;1.92;;;1.00;;
12519;SDS011;6325;49.540;8.364;2022-09-09T10:07:38;2.17;;;1.05;;
12519;SDS011;6325;49.540;8.364;2022-09-09T10:10:08;1.98;;;1.00;;
12519;SDS011;6325;49.540;8.364;2022-09-09T10:12:40;1.83;;;1.10;;
12519;SDS011;6325;49.540;8.364;2022-09-09T10:18:12;1.45;;;0.88;;
12519;SDS011;6325;49.540;8.364;2022-09-09T10:20:51;1.85;;;1.10;;
12519;SDS011;6325;49.540;8.364;2022-09-09T10:23:29;1.75;;;1.00;;
12519;SDS011;6325;49.540;8.364;2022-09-09T10:26:22;1.70;;;0.90;;
12519;SDS011;6325;49.540;8.364;2022-09-09T10:29:11;1.30;;;0.90;;
12519;SDS011;6325;49.540;8.364;2022-09-09T10:31:59;1.50;;;0.97;;
12519;SDS011;6325;49.540;8.364;2022-09-09T10:34:45;1.30;;;0.80;;
12519;SDS011;6325;49.540;8.364;2022-09-09T10:37:26;2.07;;;0.97;;
12519;SDS011;6325;49.540;8.364;2022-09-09T10:40:17;2.43;;;1.10;;
12519;SDS011;6325;49.540;8.364;2022-09-09T10:42:55;2.45;;;1.00;;
12519;SDS011;6325;49.540;8.364;2022-09-09T10:45:32;1.58;;;0.80;;
12519;SDS011;6325;49.540;8.364;2022-09-09T10:51:09;1.65;;;1.08;;
12519;SDS011;6325;49.540;8.364;2022-09-09T10:53:50;3.25;;;1.33;;
12519;SDS011;6325;49.540;8.364;2022-09-09T10:56:25;3.20;;;1.20;;
12519;SDS011;6325;49.540;8.364;2022-09-09T10:58:53;1.67;;;1.00;;
12519;SDS011;6325;49.540;8.364;2022-09-09T11:01:25;3.35;;;1.17;;
12519;SDS011;6325;49.540;8.364;2022-09-09T11:03:57;1.60;;;1.00;;
12519;SDS011;6325;49.540;8.364;2022-09-09T11:06:34;2.35;;;1.10;;
12519;SDS011;6325;49.540;8.364;2022-09-09T11:09:05;2.70;;;1.20;;
12519;SDS011;6325;49.540;8.364;2022-09-09T11:11:42;1.70;;;0.90;;
12519;SDS011;6325;49.540;8.364;2022-09-09T11:14:14;2.67;;;1.20;;
12519;SDS011;6325;49.540;8.364;2022-09-09T11:16:47;1.52;;;1.00;;
12519;SDS011;6325;49.540;8.364;2022-09-09T11:19:17;2.95;;;1.10;;
12519;SDS011;6325;49.540;8.364;2022-09-09T11:21:52;2.00;;;1.00;;
12519;SDS011;6325;49.540;8.364;2022-09-09T11:24:21;1.85;;;1.00;;
12519;SDS011;6325;49.540;8.364;2022-09-09T11:26:51;1.95;;;1.00;;
12519;SDS011;6325;49.540;8.364;2022-09-09T11:29:27;2.20;;;1.00;;
12519;SDS011;6325;49.540;8.364;2022-09-09T11:32:24;1.63;;;0.93;;
12519;SDS011;6325;49.540;8.364;2022-09-09T11:35:02;1.87;;;1.10;;
12519;SDS011;6325;49.540;8.364;2022-09-09T11:37:51;1.35;;;1.00;;
12519;SDS011;6325;49.540;8.364;2022-09-09T11:40:37;2.37;;;1.10;;
12519;SDS011;6325;49.540;8.364;2022-09-09T11:43:05;2.83;;;1.30;;
12519;SDS011;6325;49.540;8.364;2022-09-09T11:45:37;2.63;;;1.20;;
12519;SDS011;6325;49.540;8.364;2022-09-09T11:48:05;1.67;;;1.10;;
12519;SDS011;6325;49.540;8.364;2022-09-09T11:50:57;3.22;;;1.27;;
12519;SDS011;6325;49.540;8.364;2022-09-09T11:53:27;2.15;;;1.02;;
12519;SDS011;6325;49.540;8.364;2022-09-09T11:56:10;4.77;;;2.60;;
12519;SDS011;6325;49.540;8.364;2022-09-09T11:58:41;11.13;;;5.93;;
12519;SDS011;6325;49.540;8.364;2022-09-09T12:01:14;8.63;;;5.30;;
12519;SDS011;6325;49.540;8.364;2022-09-09T12:03:43;8.63;;;4.95;;
12519;SDS011;6325;49.540;8.364;2022-09-09T12:06:14;9.50;;;5.85;;
12519;SDS011;6325;49.540;8.364;2022-09-09T12:08:48;8.45;;;5.10;;
12519;SDS011;6325;49.540;8.364;2022-09-09T12:11:26;2.70;;;1.40;;
12519;SDS011;6325;49.540;8.364;2022-09-09T12:13:57;1.58;;;1.00;;
12519;SDS011;6325;49.540;8.364;2022-09-09T12:16:30;2.00;;;0.90;;
12519;SDS011;6325;49.540;8.364;2022-09-09T12:19:06;1.60;;;0.90;;
12519;SDS011;6325;49.540;8.364;2022-09-09T12:21:42;1.73;;;0.90;;
12519;SDS011;6325;49.540;8.364;2022-09-09T12:24:17;1.15;;;0.60;;
12519;SDS011;6325;49.540;8.364;2022-09-09T12:26:50;0.98;;;0.60;;
12519;SDS011;6325;49.540;8.364;2022-09-09T12:29:24;1.20;;;0.60;;
12519;SDS011;6325;49.540;8.364;2022-09-09T12:31:59;0.65;;;0.50;;
12519;SDS011;6325;49.540;8.364;2022-09-09T12:34:34;0.57;;;0.45;;
12519;SDS011;6325;49.540;8.364;2022-09-09T12:37:06;0.50;;;0.50;;
12519;SDS011;6325;49.540;8.364;2022-09-09T12:39:43;1.80;;;1.00;;
12519;SDS011;6325;49.540;8.364;2022-09-09T12:42:17;3.58;;;2.10;;
12519;SDS011;6325;49.540;8.364;2022-09-09T12:44:51;2.42;;;1.90;;
12519;SDS011;6325;49.540;8.364;2022-09-09T12:47:20;2.50;;;1.40;;
12519;SDS011;6325;49.540;8.364;2022-09-09T12:49:50;0.82;;;0.73;;
12519;SDS011;6325;49.540;8.364;2022-09-09T12:52:23;5.10;;;2.97;;
12519;SDS011;6325;49.540;8.364;2022-09-09T12:54:56;2.35;;;1.50;;
12519;SDS011;6325;49.540;8.364;2022-09-09T12:57:25;1.30;;;0.70;;
12519;SDS011;6325;49.540;8.364;2022-09-09T13:00:04;0.90;;;0.65;;
12519;SDS011;6325;49.540;8.364;2022-09-09T13:02:44;1.13;;;0.80;;
12519;SDS011;6325;49.540;8.364;2022-09-09T13:05:15;2.95;;;0.90;;
12519;SDS011;6325;49.540;8.364;2022-09-09T13:07:44;0.98;;;0.88;;
12519;SDS011;6325;49.540;8.364;2022-09-09T13:10:14;0.70;;;0.70;;
12519;SDS011;6325;49.540;8.364;2022-09-09T13:12:47;3.45;;;2.60;;
12519;SDS011;6325;49.540;8.364;2022-09-09T13:15:19;0.80;;;0.80;;
12519;SDS011;6325;49.540;8.364;2022-09-09T13:17:51;0.60;;;0.50;;
12519;SDS011;6325;49.540;8.364;2022-09-09T13:20:20;3.60;;;1.98;;
12519;SDS011;6325;49.540;8.364;2022-09-09T13:22:49;4.72;;;2.95;;
12519;SDS011;6325;49.540;8.364;2022-09-09T13:25:21;1.43;;;1.33;;
12519;SDS011;6325;49.540;8.364;2022-09-09T13:27:52;1.77;;;1.10;;
12519;SDS011;6325;49.540;8.364;2022-09-09T13:30:22;0.60;;;0.60;;
12519;SDS011;6325;49.540;8.364;2022-09-09T13:33:04;0.40;;;0.40;;
12519;SDS011;6325;49.540;8.364;2022-09-09T13:35:32;0.33;;;0.33;;
12519;SDS011;6325;49.540;8.364;2022-09-09T13:38:06;2.45;;;1.98;;
12519;SDS011;6325;49.540;8.364;2022-09-09T13:40:37;1.48;;;0.70;;
12519;SDS011;6325;49.540;8.364;2022-09-09T13:43:04;0.68;;;0.60;;
12519;SDS011;6325;49.540;8.364;2022-09-09T13:45:31;0.93;;;0.50;;
12519;SDS011;6325;49.540;8.364;2022-09-09T13:47:59;0.70;;;0.50;;
12519;SDS011;6325;49.540;8.364;2022-09-09T13:50:35;0.90;;;0.50;;
12519;SDS011;6325;49.540;8.364;2022-09-09T13:53:02;1.08;;;0.70;;
12519;SDS011;6325;49.540;8.364;2022-09-09T13:55:30;1.20;;;0.80;;
12519;SDS011;6325;49.540;8.364;2022-09-09T13:57:58;0.63;;;0.63;;
12519;SDS011;6325;49.540;8.364;2022-09-09T14:00:28;0.63;;;0.60;;
12519;SDS011;6325;49.540;8.364;2022-09-09T14:02:56;0.63;;;0.60;;
12519;SDS011;6325;49.540;8.364;2022-09-09T14:05:26;0.80;;;0.57;;
12519;SDS011;6325;49.540;8.364;2022-09-09T14:07:54;1.40;;;0.70;;
12519;SDS011;6325;49.540;8.364;2022-09-09T14:10:21;0.85;;;0.60;;
12519;SDS011;6325;49.540;8.364;2022-09-09T14:12:48;1.35;;;0.80;;
12519;SDS011;6325;49.540;8.364;2022-09-09T14:15:16;1.00;;;0.65;;
12519;SDS011;6325;49.540;8.364;2022-09-09T14:17:44;1.00;;;0.80;;
12519;SDS011;6325;49.540;8.364;2022-09-09T14:20:11;0.80;;;0.70;;
12519;SDS011;6325;49.540;8.364;2022-09-09T14:22:40;1.08;;;0.60;;
12519;SDS011;6325;49.540;8.364;2022-09-09T14:25:09;1.35;;;0.80;;
12519;SDS011;6325;49.540;8.364;2022-09-09T14:27:36;0.60;;;0.60;;
12519;SDS011;6325;49.540;8.364;2022-09-09T14:30:04;1.90;;;0.85;;
12519;SDS011;6325;49.540;8.364;2022-09-09T14:32:33;1.25;;;0.75;;
12519;SDS011;6325;49.540;8.364;2022-09-09T14:35:00;1.00;;;0.70;;
12519;SDS011;6325;49.540;8.364;2022-09-09T14:37:27;1.00;;;0.80;;
12519;SDS011;6325;49.540;8.364;2022-09-09T14:39:56;0.98;;;0.70;;
12519;SDS011;6325;49.540;8.364;2022-09-09T14:42:23;1.30;;;0.80;;
12519;SDS011;6325;49.540;8.364;2022-09-09T14:44:50;0.60;;;0.60;;
12519;SDS011;6325;49.540;8.364;2022-09-09T14:47:17;0.50;;;0.50;;
12519;SDS011;6325;49.540;8.364;2022-09-09T14:49:45;1.00;;;0.90;;
12519;SDS011;6325;49.540;8.364;2022-09-09T14:52:14;1.65;;;0.82;;
12519;SDS011;6325;49.540;8.364;2022-09-09T14:54:42;0.67;;;0.60;;
12519;SDS011;6325;49.540;8.364;2022-09-09T14:57:09;0.70;;;0.60;;
12519;SDS011;6325;49.540;8.364;2022-09-09T14:59:36;1.30;;;0.90;;
12519;SDS011;6325;49.540;8.364;2022-09-09T15:02:02;1.65;;;0.70;;
12519;SDS011;6325;49.540;8.364;2022-09-09T15:04:29;0.85;;;0.68;;
12519;SDS011;6325;49.540;8.364;2022-09-09T15:06:58;0.50;;;0.50;;
12519;SDS011;6325;49.540;8.364;2022-09-09T15:09:25;0.50;;;0.50;;
12519;SDS011;6325;49.540;8.364;2022-09-09T15:11:52;0.50;;;0.50;;
12519;SDS011;6325;49.540;8.364;2022-09-09T15:14:20;0.60;;;0.60;;
12519;SDS011;6325;49.540;8.364;2022-09-09T15:19:45;1.55;;;1.10;;
12519;SDS011;6325;49.540;8.364;2022-09-09T15:22:13;1.00;;;0.60;;
12519;SDS011;6325;49.540;8.364;2022-09-09T15:24:40;0.93;;;0.50;;
12519;SDS011;6325;49.540;8.364;2022-09-09T15:27:07;0.95;;;0.40;;
12519;SDS011;6325;49.540;8.364;2022-09-09T15:29:33;0.77;;;0.68;;
12519;SDS011;6325;49.540;8.364;2022-09-09T15:32:00;1.20;;;0.52;;
12519;SDS011;6325;49.540;8.364;2022-09-09T15:34:27;0.63;;;0.50;;
12519;SDS011;6325;49.540;8.364;2022-09-09T15:36:54;1.00;;;0.60;;